VTK601 UUEE-USSS
Flight info
| Callsign | VTK601 |
|---|---|
| Flight time | N/A |
| Altitude | 41000 |
| Route | OLMUN3H OLMUN DCT EKPIR M864 INKEB L94 NAMER T765 GEMKI L94 LOMBI LOMBI6R |
| Aircraft | A388/J-SADE2E3FGHIJ3J4J5M1RWXY/LB1D1 |
Departure
| Time | 2026-05-04 05:31 |
|---|---|
| Airport | Sheremetyevo International Airport (UUEE) |
Arrival
| Time | N/A |
|---|---|
| Airport | Koltsovo Airport (USSS) |
| Time | Latitude | Longitude | Altitude | Speed | Heading |
|---|---|---|---|---|---|
| 2026-05-04 05:18 | 55.98020 | 37.41849 | 644 ft | 0 kts | 255° |
| 2026-05-04 05:25 | 55.98023 | 37.41868 | 648 ft | 2 kts | 255° |
| 2026-05-04 05:26 | 55.98027 | 37.41895 | 644 ft | 2 kts | 255° |
| 2026-05-04 05:26 | 55.98031 | 37.41923 | 644 ft | 2 kts | 255° |
| 2026-05-04 05:26 | 55.98038 | 37.41949 | 644 ft | 2 kts | 234° |
| 2026-05-04 05:26 | 55.98052 | 37.41962 | 645 ft | 2 kts | 194° |
| 2026-05-04 05:27 | 55.98063 | 37.41959 | 644 ft | 0 kts | 164° |
| 2026-05-04 05:28 | 55.97734 | 37.42119 | 647 ft | 15 kts | 153° |
| 2026-05-04 05:29 | 55.97699 | 37.42285 | 644 ft | 17 kts | 79° |
| 2026-05-04 05:29 | 55.97735 | 37.42523 | 648 ft | 22 kts | 75° |
| 2026-05-04 05:29 | 55.97778 | 37.42811 | 648 ft | 26 kts | 75° |
| 2026-05-04 05:29 | 55.97826 | 37.43132 | 646 ft | 28 kts | 75° |
| 2026-05-04 05:31 | 55.97475 | 37.41972 | 679 ft | 157 kts | 254° |
| 2026-05-04 05:31 | 55.97167 | 37.40090 | 1480 ft | 155 kts | 255° |
| 2026-05-04 05:32 | 55.96866 | 37.38221 | 2348 ft | 160 kts | 258° |
| 2026-05-04 05:32 | 55.96559 | 37.36213 | 2982 ft | 176 kts | 258° |
| 2026-05-04 05:32 | 55.96231 | 37.34011 | 3469 ft | 191 kts | 257° |
| 2026-05-04 05:33 | 55.95468 | 37.29037 | 3975 ft | 225 kts | 257° |
| 2026-05-04 05:33 | 55.95013 | 37.26165 | 4451 ft | 251 kts | 256° |
| 2026-05-04 05:33 | 55.94525 | 37.23113 | 5244 ft | 260 kts | 256° |
| 2026-05-04 05:33 | 55.94031 | 37.19992 | 6372 ft | 262 kts | 257° |
| 2026-05-04 05:34 | 55.93535 | 37.16850 | 7451 ft | 265 kts | 257° |
| 2026-05-04 05:34 | 55.93042 | 37.13703 | 8485 ft | 268 kts | 257° |
| 2026-05-04 05:34 | 55.92522 | 37.10441 | 9415 ft | 273 kts | 257° |
| 2026-05-04 05:34 | 55.92005 | 37.07169 | 9779 ft | 275 kts | 257° |
| 2026-05-04 05:35 | 55.91633 | 37.03881 | 9886 ft | 274 kts | 272° |
| 2026-05-04 05:35 | 55.92034 | 37.00569 | 9910 ft | 271 kts | 296° |
| 2026-05-04 05:35 | 55.93163 | 36.97956 | 9908 ft | 271 kts | 319° |
| 2026-05-04 05:35 | 55.94733 | 36.96030 | 9915 ft | 268 kts | 324° |
| 2026-05-04 05:36 | 55.96249 | 36.94179 | 9906 ft | 268 kts | 323° |
| 2026-05-04 05:36 | 55.97830 | 36.92407 | 9909 ft | 271 kts | 335° |
| 2026-05-04 05:36 | 55.99728 | 36.91829 | 10149 ft | 281 kts | 0° |
| 2026-05-04 05:36 | 56.01603 | 36.92850 | 10799 ft | 294 kts | 26° |
| 2026-05-04 05:37 | 56.03320 | 36.94879 | 11781 ft | 298 kts | 28° |
| 2026-05-04 05:37 | 56.05067 | 36.96909 | 12687 ft | 302 kts | 28° |
| 2026-05-04 05:37 | 56.06859 | 36.98974 | 13487 ft | 309 kts | 28° |
| 2026-05-04 05:38 | 56.10475 | 37.03224 | 13892 ft | 315 kts | 34° |
| 2026-05-04 05:38 | 56.11908 | 37.06249 | 14191 ft | 326 kts | 59° |
| 2026-05-04 05:38 | 56.12665 | 37.10127 | 14706 ft | 335 kts | 73° |
| 2026-05-04 05:38 | 56.13256 | 37.14301 | 14871 ft | 352 kts | 73° |
| 2026-05-04 05:39 | 56.13861 | 37.18585 | 14905 ft | 357 kts | 73° |
| 2026-05-04 05:39 | 56.14978 | 37.27243 | 14904 ft | 359 kts | 84° |
| 2026-05-04 05:39 | 56.14710 | 37.31699 | 15080 ft | 363 kts | 106° |
| 2026-05-04 05:40 | 56.11631 | 37.38751 | 16477 ft | 367 kts | 151° |
| 2026-05-04 05:40 | 56.09314 | 37.40643 | 17241 ft | 368 kts | 162° |
| 2026-05-04 05:40 | 56.06882 | 37.42183 | 17939 ft | 373 kts | 163° |
| 2026-05-04 05:41 | 56.04439 | 37.43818 | 18623 ft | 377 kts | 160° |
| 2026-05-04 05:41 | 56.01999 | 37.45638 | 19284 ft | 381 kts | 158° |
| 2026-05-04 05:41 | 55.99593 | 37.47560 | 19736 ft | 386 kts | 158° |
| 2026-05-04 05:41 | 55.97153 | 37.49584 | 19881 ft | 387 kts | 154° |
| 2026-05-04 05:42 | 55.94967 | 37.52409 | 20104 ft | 392 kts | 134° |
| 2026-05-04 05:42 | 55.93415 | 37.56394 | 20732 ft | 393 kts | 114° |
| 2026-05-04 05:42 | 55.92604 | 37.61024 | 21425 ft | 392 kts | 99° |
| 2026-05-04 05:42 | 55.92202 | 37.65841 | 22026 ft | 395 kts | 95° |
| 2026-05-04 05:43 | 55.91825 | 37.70703 | 22719 ft | 397 kts | 99° |
| 2026-05-04 05:43 | 55.91070 | 37.75466 | 23340 ft | 402 kts | 110° |
| 2026-05-04 05:43 | 55.89858 | 37.79981 | 23882 ft | 407 kts | 118° |
| 2026-05-04 05:45 | 55.80240 | 38.11929 | 27864 ft | 429 kts | 103° |
| 2026-05-04 05:45 | 55.79727 | 38.17139 | 28472 ft | 429 kts | 90° |
| 2026-05-04 05:47 | 55.82881 | 38.55725 | 31464 ft | 470 kts | 69° |
| 2026-05-04 05:47 | 55.83876 | 38.61288 | 31966 ft | 474 kts | 69° |
| 2026-05-04 05:47 | 55.84875 | 38.66911 | 32454 ft | 478 kts | 69° |
| 2026-05-04 05:48 | 55.85976 | 38.72504 | 32935 ft | 480 kts | 64° |
| 2026-05-04 05:48 | 55.87397 | 38.77896 | 33403 ft | 482 kts | 60° |
| 2026-05-04 05:48 | 55.88858 | 38.83308 | 33883 ft | 487 kts | 61° |
| 2026-05-04 05:48 | 55.90315 | 38.88786 | 34295 ft | 491 kts | 61° |
| 2026-05-04 05:49 | 55.91779 | 38.94308 | 34687 ft | 496 kts | 61° |
| 2026-05-04 05:49 | 55.93251 | 38.99892 | 35183 ft | 498 kts | 61° |
| 2026-05-04 05:49 | 55.94718 | 39.05469 | 35752 ft | 498 kts | 61° |
| 2026-05-04 05:49 | 55.96193 | 39.11079 | 36312 ft | 498 kts | 62° |
| 2026-05-04 05:51 | 56.05762 | 39.50835 | 39850 ft | 504 kts | 80° |
| 2026-05-04 05:51 | 56.06017 | 39.57091 | 40263 ft | 506 kts | 90° |
| 2026-05-04 05:52 | 56.05696 | 39.63344 | 40688 ft | 506 kts | 100° |
| 2026-05-04 05:52 | 56.04811 | 39.69474 | 40898 ft | 513 kts | 110° |
| 2026-05-04 05:52 | 56.03136 | 39.81735 | 40894 ft | 507 kts | 94° |
| 2026-05-04 05:54 | 56.03575 | 40.32242 | 40898 ft | 508 kts | 88° |
| 2026-05-04 05:55 | 56.03709 | 40.44873 | 40896 ft | 508 kts | 88° |
| 2026-05-04 05:55 | 56.03831 | 40.57510 | 40910 ft | 508 kts | 88° |
| 2026-05-04 05:56 | 56.03939 | 40.70133 | 40909 ft | 508 kts | 88° |
| 2026-05-04 05:56 | 56.04033 | 40.82772 | 40902 ft | 508 kts | 88° |
| 2026-05-04 05:57 | 56.04113 | 40.95394 | 40901 ft | 508 kts | 88° |
| 2026-05-04 05:57 | 56.04182 | 41.08017 | 40907 ft | 508 kts | 89° |
| 2026-05-04 05:58 | 56.04237 | 41.20644 | 40913 ft | 507 kts | 89° |
| 2026-05-04 05:58 | 56.04278 | 41.33275 | 40896 ft | 508 kts | 89° |
| 2026-05-04 05:59 | 56.04307 | 41.45904 | 40899 ft | 508 kts | 89° |
| 2026-05-04 05:59 | 56.04323 | 41.58539 | 40898 ft | 508 kts | 89° |
| 2026-05-04 06:00 | 56.04327 | 41.71168 | 40907 ft | 508 kts | 89° |
| 2026-05-04 06:00 | 56.04317 | 41.83789 | 40907 ft | 508 kts | 89° |
| 2026-05-04 06:01 | 56.04295 | 41.96426 | 40904 ft | 508 kts | 89° |
| 2026-05-04 06:03 | 56.04075 | 42.46953 | 40913 ft | 508 kts | 90° |
| 2026-05-04 06:05 | 56.03395 | 43.01613 | 40903 ft | 508 kts | 91° |
| 2026-05-04 06:06 | 56.03198 | 43.14228 | 40906 ft | 508 kts | 91° |
| 2026-05-04 06:06 | 56.02987 | 43.26860 | 40907 ft | 508 kts | 91° |
| 2026-05-04 06:07 | 56.03235 | 43.39441 | 40905 ft | 506 kts | 82° |
| 2026-05-04 06:07 | 56.04115 | 43.51939 | 40907 ft | 506 kts | 82° |
| 2026-05-04 06:08 | 56.04956 | 43.64446 | 40906 ft | 507 kts | 82° |
| 2026-05-04 06:08 | 56.05783 | 43.76958 | 40909 ft | 507 kts | 82° |
| 2026-05-04 06:09 | 56.06601 | 43.89501 | 40906 ft | 507 kts | 82° |
| 2026-05-04 06:11 | 56.09745 | 44.39685 | 40910 ft | 507 kts | 83° |
| 2026-05-04 06:13 | 56.10781 | 44.90117 | 40908 ft | 507 kts | 91° |
| 2026-05-04 06:14 | 56.09774 | 45.34327 | 40911 ft | 507 kts | 92° |
| 2026-05-04 06:15 | 56.09460 | 45.46957 | 40909 ft | 507 kts | 92° |
| 2026-05-04 06:15 | 56.09132 | 45.59582 | 40909 ft | 508 kts | 92° |
| 2026-05-04 06:16 | 56.08790 | 45.72222 | 40917 ft | 508 kts | 92° |
| 2026-05-04 06:16 | 56.08435 | 45.84837 | 40917 ft | 508 kts | 92° |
| 2026-05-04 06:17 | 56.08068 | 45.97463 | 40921 ft | 508 kts | 92° |
| 2026-05-04 06:17 | 56.07688 | 46.10087 | 40918 ft | 508 kts | 93° |
| 2026-05-04 06:18 | 56.07294 | 46.22714 | 40926 ft | 508 kts | 93° |
| 2026-05-04 06:20 | 56.06556 | 46.73257 | 40926 ft | 508 kts | 88° |
| 2026-05-04 06:21 | 56.06821 | 47.04888 | 40936 ft | 509 kts | 89° |
| 2026-05-04 06:22 | 56.06902 | 47.17559 | 40932 ft | 509 kts | 89° |
| 2026-05-04 06:25 | 56.07110 | 48.06154 | 40931 ft | 508 kts | 90° |
| 2026-05-04 06:26 | 56.07093 | 48.18804 | 40934 ft | 508 kts | 90° |
| 2026-05-04 06:26 | 56.07063 | 48.31385 | 40926 ft | 508 kts | 90° |
| 2026-05-04 06:27 | 56.06931 | 48.63001 | 40930 ft | 509 kts | 90° |
| 2026-05-04 06:28 | 56.06855 | 48.75670 | 40928 ft | 508 kts | 90° |
| 2026-05-04 06:28 | 56.06766 | 48.88336 | 40921 ft | 509 kts | 90° |
| 2026-05-04 06:29 | 56.06665 | 49.00987 | 40930 ft | 509 kts | 90° |
| 2026-05-04 06:29 | 56.06550 | 49.13644 | 40935 ft | 509 kts | 91° |
| 2026-05-04 06:30 | 56.06422 | 49.26298 | 40931 ft | 509 kts | 91° |
| 2026-05-04 06:30 | 56.06281 | 49.38949 | 40932 ft | 509 kts | 91° |
| 2026-05-04 06:31 | 56.06128 | 49.51623 | 40927 ft | 509 kts | 91° |
| 2026-05-04 06:31 | 56.05961 | 49.64281 | 40928 ft | 509 kts | 91° |
| 2026-05-04 06:33 | 56.05168 | 50.14903 | 40932 ft | 509 kts | 92° |
| 2026-05-04 06:34 | 56.04937 | 50.27578 | 40934 ft | 509 kts | 92° |
| 2026-05-04 06:34 | 56.04693 | 50.40232 | 40937 ft | 509 kts | 92° |
| 2026-05-04 06:36 | 56.03677 | 50.90860 | 40943 ft | 509 kts | 90° |
| 2026-05-04 06:37 | 56.03794 | 51.03550 | 40938 ft | 509 kts | 89° |
| 2026-05-04 06:37 | 56.03881 | 51.16215 | 40944 ft | 509 kts | 90° |
| 2026-05-04 06:38 | 56.03917 | 51.28890 | 40939 ft | 510 kts | 90° |
| 2026-05-04 06:40 | 56.03901 | 51.79622 | 40946 ft | 510 kts | 90° |
| 2026-05-04 06:40 | 56.04232 | 51.92295 | 40942 ft | 510 kts | 86° |
| 2026-05-04 06:41 | 56.04691 | 52.04942 | 40943 ft | 510 kts | 86° |
| 2026-05-04 06:41 | 56.05129 | 52.17632 | 40937 ft | 511 kts | 86° |
| 2026-05-04 06:42 | 56.05550 | 52.30320 | 40941 ft | 511 kts | 86° |
| 2026-05-04 06:44 | 56.07052 | 52.81141 | 40950 ft | 511 kts | 87° |
| 2026-05-04 06:44 | 56.07313 | 52.91707 | 40949 ft | 511 kts | 88° |
| 2026-05-04 06:45 | 56.07619 | 53.04430 | 40949 ft | 511 kts | 88° |
| 2026-05-04 06:45 | 56.07913 | 53.17158 | 40954 ft | 511 kts | 88° |
| 2026-05-04 06:46 | 56.08194 | 53.29874 | 40951 ft | 511 kts | 88° |
| 2026-05-04 06:46 | 56.08461 | 53.42599 | 40950 ft | 511 kts | 88° |
| 2026-05-04 06:48 | 56.09413 | 53.93545 | 40943 ft | 512 kts | 88° |
| 2026-05-04 06:50 | 56.10881 | 54.44468 | 40940 ft | 512 kts | 81° |
| 2026-05-04 06:51 | 56.11994 | 54.57084 | 40924 ft | 513 kts | 81° |
| 2026-05-04 06:51 | 56.13080 | 54.69717 | 40926 ft | 513 kts | 81° |
| 2026-05-04 06:52 | 56.14156 | 54.82357 | 40933 ft | 513 kts | 81° |
| 2026-05-04 06:52 | 56.15223 | 54.95025 | 40929 ft | 514 kts | 81° |
| 2026-05-04 06:53 | 56.16277 | 55.07707 | 40931 ft | 514 kts | 81° |
| 2026-05-04 06:53 | 56.17317 | 55.20392 | 40933 ft | 514 kts | 81° |
| 2026-05-04 06:54 | 56.18346 | 55.33104 | 40930 ft | 514 kts | 82° |
| 2026-05-04 06:54 | 56.19361 | 55.45804 | 40936 ft | 514 kts | 82° |
| 2026-05-04 06:55 | 56.20365 | 55.58541 | 40924 ft | 515 kts | 82° |
| 2026-05-04 06:55 | 56.21358 | 55.71280 | 40919 ft | 515 kts | 82° |
| 2026-05-04 06:57 | 56.25206 | 56.22325 | 40915 ft | 516 kts | 82° |
| 2026-05-04 06:58 | 56.26136 | 56.35122 | 40908 ft | 516 kts | 82° |
| 2026-05-04 06:58 | 56.27054 | 56.47943 | 40909 ft | 516 kts | 83° |
| 2026-05-04 06:59 | 56.27525 | 56.54595 | 40908 ft | 516 kts | 83° |